createdAt,value
2023-02-22T00:00:19.220Z,9.67
2023-02-22T00:01:36.127Z,9.07
2023-02-22T00:02:37.577Z,8.73
2023-02-22T00:03:39.059Z,10.00
2023-02-22T00:04:40.473Z,8.70
2023-02-22T00:05:46.912Z,11.93
2023-02-22T00:06:49.390Z,8.40
2023-02-22T00:07:50.688Z,8.70
2023-02-22T00:08:52.497Z,9.57
2023-02-22T00:09:53.908Z,10.10
2023-02-22T00:10:55.295Z,8.83
2023-02-22T00:11:58.686Z,12.20
2023-02-22T00:13:00.043Z,9.90
2023-02-22T00:14:02.428Z,8.30
2023-02-22T00:15:03.847Z,11.60
2023-02-22T00:16:05.594Z,10.47
2023-02-22T00:17:06.932Z,8.40
2023-02-22T00:18:10.468Z,8.10
2023-02-22T00:19:11.886Z,10.50
2023-02-22T00:20:15.223Z,8.63
2023-02-22T00:21:17.162Z,13.10
2023-02-22T00:22:19.509Z,9.97
2023-02-22T00:23:22.230Z,12.43
2023-02-22T00:24:24.081Z,8.67
2023-02-22T00:25:25.682Z,11.27
2023-02-22T00:26:27.671Z,9.03
2023-02-22T00:27:28.996Z,9.27
2023-02-22T00:28:30.687Z,10.07
2023-02-22T00:29:34.416Z,7.00
2023-02-22T00:30:35.907Z,9.13
2023-02-22T00:31:39.209Z,10.73
2023-02-22T00:32:40.645Z,10.87
2023-02-22T00:33:42.154Z,7.97
2023-02-22T00:34:46.190Z,9.13
2023-02-22T00:35:47.528Z,7.80
2023-02-22T00:36:49.270Z,8.40
2023-02-22T00:37:51.592Z,9.83
2023-02-22T00:38:52.934Z,12.20
2023-02-22T00:39:54.266Z,10.27
2023-02-22T00:40:55.707Z,8.53
2023-02-22T00:41:58.849Z,10.40
2023-02-22T00:43:01.771Z,8.80
2023-02-22T00:44:03.185Z,13.10
2023-02-22T00:45:05.091Z,11.83
2023-02-22T00:46:06.468Z,10.43
2023-02-22T00:47:08.550Z,14.70
2023-02-22T00:48:10.303Z,11.43
2023-02-22T00:49:11.629Z,10.30
2023-02-22T00:50:13.471Z,9.00
2023-02-22T00:51:15.217Z,9.73
2023-02-22T00:52:17.187Z,10.30
2023-02-22T00:53:18.568Z,11.47
2023-02-22T00:54:20.667Z,12.00
2023-02-22T00:55:26.721Z,9.23
2023-02-22T00:56:28.182Z,10.67
2023-02-22T00:57:29.519Z,12.67
2023-02-22T00:58:31.992Z,10.77
2023-02-22T00:59:33.365Z,10.30
2023-02-22T01:00:39.120Z,14.73
2023-02-22T01:01:42.436Z,14.33
2023-02-22T01:02:43.863Z,13.83
2023-02-22T01:03:48.136Z,13.70
2023-02-22T01:04:51.168Z,14.50
2023-02-22T01:05:52.615Z,12.40
2023-02-22T01:06:54.113Z,12.80
2023-02-22T01:07:56.016Z,12.40
2023-02-22T01:08:57.402Z,15.67
2023-02-22T01:09:58.877Z,12.27
2023-02-22T01:11:00.273Z,10.70
2023-02-22T01:12:02.353Z,11.30
2023-02-22T01:13:09.034Z,10.47
2023-02-22T01:14:11.622Z,11.07
2023-02-22T01:15:13.556Z,11.60
2023-02-22T01:16:15.411Z,11.03
2023-02-22T01:17:16.753Z,12.00
2023-02-22T01:18:18.165Z,10.03
2023-02-22T01:19:19.727Z,12.67
2023-02-22T01:20:26.100Z,9.37
2023-02-22T01:21:27.432Z,9.33
2023-02-22T01:22:28.834Z,9.67
2023-02-22T01:23:31.034Z,8.17
2023-02-22T01:24:32.545Z,11.77
2023-02-22T01:25:34.556Z,9.73
2023-02-22T01:26:36.095Z,8.60
2023-02-22T01:27:38.456Z,10.43
2023-02-22T01:28:39.854Z,11.17
2023-02-22T01:29:41.300Z,11.37
2023-02-22T01:30:42.769Z,10.20
2023-02-22T01:31:50.227Z,10.73
2023-02-22T01:32:52.829Z,11.10
2023-02-22T01:33:54.170Z,13.17
2023-02-22T01:34:56.339Z,11.77
2023-02-22T01:35:57.847Z,12.93
2023-02-22T01:36:59.675Z,10.47
2023-02-22T01:38:01.287Z,9.53
2023-02-22T01:39:02.866Z,9.30
2023-02-22T01:40:07.042Z,9.07
2023-02-22T01:41:08.564Z,10.10
2023-02-22T01:42:11.512Z,9.60
2023-02-22T01:43:15.625Z,10.17
2023-02-22T01:44:37.276Z,10.73
2023-02-22T01:45:42.120Z,11.37
2023-02-22T01:46:43.466Z,12.50
2023-02-22T01:47:44.783Z,10.07
2023-02-22T01:48:49.347Z,10.83
2023-02-22T01:49:51.670Z,9.87
2023-02-22T01:51:10.586Z,10.27
2023-02-22T01:52:15.334Z,11.60
2023-02-22T01:53:18.051Z,10.03
2023-02-22T01:54:19.451Z,9.97
2023-02-22T01:55:20.915Z,10.07
2023-02-22T01:56:23.413Z,11.70
2023-02-22T01:57:26.885Z,12.67
2023-02-22T01:58:30.266Z,11.63
2023-02-22T01:59:34.048Z,9.57
2023-02-22T02:00:35.924Z,10.43
2023-02-22T02:01:38.423Z,12.47
2023-02-22T02:02:42.532Z,13.30
2023-02-22T02:03:45.021Z,13.23
2023-02-22T02:04:46.419Z,18.47
2023-02-22T02:05:48.451Z,18.73
2023-02-22T02:06:49.878Z,17.73
2023-02-22T02:07:53.969Z,13.13
2023-02-22T02:08:59.443Z,15.47
2023-02-22T02:10:02.026Z,19.03
2023-02-22T02:11:05.196Z,19.40
2023-02-22T02:12:08.476Z,19.17
2023-02-22T02:13:10.146Z,22.60
2023-02-22T02:14:12.185Z,16.87
2023-02-22T02:15:28.959Z,18.40
2023-02-22T02:16:37.005Z,21.13
2023-02-22T02:17:38.350Z,23.47
2023-02-22T02:18:40.213Z,19.33
2023-02-22T02:19:50.732Z,17.73
2023-02-22T02:21:16.477Z,18.03
2023-02-22T02:22:25.345Z,14.53
2023-02-22T02:23:45.334Z,11.70
2023-02-22T02:25:07.538Z,9.97
2023-02-22T02:26:20.592Z,13.87
2023-02-22T02:27:23.105Z,10.67
2023-02-22T02:28:36.096Z,9.97
2023-02-22T02:29:40.476Z,10.47
2023-02-22T02:30:54.083Z,13.77
2023-02-22T02:32:15.847Z,10.03
2023-02-22T02:33:37.446Z,14.83
2023-02-22T02:34:53.670Z,9.83
2023-02-22T02:36:09.549Z,13.50
2023-02-22T02:37:20.855Z,12.43
2023-02-22T02:38:40.118Z,12.23
2023-02-22T02:39:49.256Z,9.40
2023-02-22T02:40:54.065Z,10.43
2023-02-22T02:41:56.574Z,13.07
2023-02-22T02:43:06.993Z,11.97
2023-02-22T02:44:12.811Z,11.80
2023-02-22T02:45:17.595Z,12.37
2023-02-22T02:46:37.179Z,13.00
2023-02-22T02:47:42.249Z,13.37
2023-02-22T02:48:46.482Z,13.13
2023-02-22T02:50:17.168Z,15.13
2023-02-22T02:51:19.432Z,15.13
2023-02-22T02:52:21.516Z,12.97
2023-02-22T02:53:25.586Z,14.40
2023-02-22T02:54:27.564Z,14.20
2023-02-22T02:55:32.420Z,18.47
2023-02-22T02:56:35.155Z,16.60
2023-02-22T02:57:38.361Z,18.20
2023-02-22T02:58:49.842Z,18.43
2023-02-22T02:59:51.524Z,18.50
2023-02-22T03:00:55.514Z,17.83
2023-02-22T03:01:57.087Z,17.10
2023-02-22T03:03:08.985Z,16.73
2023-02-22T03:04:13.085Z,19.70
2023-02-22T03:05:19.412Z,19.27
2023-02-22T03:06:37.213Z,19.63
2023-02-22T03:07:52.602Z,16.87
2023-02-22T03:08:59.528Z,17.63
2023-02-22T03:10:13.342Z,17.17
2023-02-22T03:11:16.884Z,16.33
2023-02-22T03:12:20.264Z,14.43
2023-02-22T03:13:36.828Z,16.37
2023-02-22T03:14:42.188Z,14.47
2023-02-22T03:15:52.876Z,14.00
2023-02-22T03:17:01.269Z,14.67
2023-02-22T03:18:02.605Z,16.53
2023-02-22T03:19:08.805Z,19.87
2023-02-22T03:20:33.236Z,17.87
2023-02-22T03:21:50.254Z,20.60
2023-02-22T03:23:01.531Z,16.90
2023-02-22T03:24:05.447Z,16.50
2023-02-22T03:25:17.062Z,15.73
2023-02-22T03:26:23.958Z,17.17
2023-02-22T03:27:43.405Z,11.67
2023-02-22T03:28:47.804Z,14.77
2023-02-22T03:29:51.522Z,15.03
2023-02-22T03:30:59.106Z,17.57
2023-02-22T03:32:02.203Z,15.60
2023-02-22T03:33:11.234Z,13.40
2023-02-22T03:34:18.954Z,13.30
2023-02-22T03:35:24.067Z,14.13
2023-02-22T03:36:27.622Z,18.73
2023-02-22T03:37:30.850Z,19.67
2023-02-22T03:38:33.184Z,14.00
2023-02-22T03:39:37.107Z,14.67
2023-02-22T03:40:44.421Z,13.50
2023-02-22T03:41:53.840Z,13.40
2023-02-22T03:43:02.075Z,14.30
2023-02-22T03:44:11.684Z,13.63
2023-02-22T03:45:15.498Z,12.30
2023-02-22T03:46:19.245Z,15.53
2023-02-22T03:47:28.179Z,14.90
2023-02-22T03:48:36.414Z,15.10
2023-02-22T03:49:41.173Z,17.20
2023-02-22T03:50:42.840Z,46.73
2023-02-22T03:51:44.262Z,29.87
2023-02-22T03:52:47.432Z,15.77
2023-02-22T03:53:56.085Z,18.67
2023-02-22T03:55:02.471Z,22.10
2023-02-22T03:56:07.180Z,24.40
2023-02-22T03:57:12.139Z,18.03
2023-02-22T03:58:16.652Z,17.57
2023-02-22T03:59:18.163Z,15.93
2023-02-22T04:00:22.690Z,15.30
2023-02-22T04:01:24.683Z,13.63
2023-02-22T04:02:26.640Z,15.87
2023-02-22T04:03:28.034Z,18.37
2023-02-22T04:04:29.492Z,16.67
2023-02-22T04:05:31.107Z,14.23
2023-02-22T04:06:33.077Z,18.27
2023-02-22T04:07:36.517Z,19.33
2023-02-22T04:08:37.970Z,17.67
2023-02-22T04:09:39.407Z,16.10
2023-02-22T04:10:40.832Z,16.50
2023-02-22T04:11:43.137Z,16.80
2023-02-22T04:12:45.652Z,16.83
2023-02-22T04:13:47.728Z,15.07
2023-02-22T04:14:49.016Z,12.77
2023-02-22T04:15:50.338Z,13.80
2023-02-22T04:16:52.274Z,13.93
2023-02-22T04:17:53.672Z,12.10
2023-02-22T04:18:55.075Z,12.87
2023-02-22T04:19:56.525Z,13.50
2023-02-22T04:20:59.968Z,13.03
2023-02-22T04:22:09.044Z,13.47
2023-02-22T04:23:10.605Z,17.17
2023-02-22T04:24:14.319Z,14.43
2023-02-22T04:25:17.488Z,14.37
2023-02-22T04:26:21.491Z,14.73
2023-02-22T04:27:28.026Z,14.30
2023-02-22T04:28:30.974Z,16.43
2023-02-22T04:29:44.868Z,13.23
2023-02-22T04:30:46.481Z,16.00
2023-02-22T04:31:50.388Z,12.97
2023-02-22T04:32:51.899Z,13.97
2023-02-22T04:33:55.825Z,12.23
2023-02-22T04:35:01.837Z,12.80
2023-02-22T04:36:04.534Z,14.63
2023-02-22T04:37:10.207Z,13.07
2023-02-22T04:38:11.507Z,14.53
2023-02-22T04:39:15.072Z,14.70
2023-02-22T04:40:17.194Z,12.87
2023-02-22T04:41:19.196Z,12.77
2023-02-22T04:42:20.701Z,15.97
2023-02-22T04:43:22.148Z,15.57
2023-02-22T04:44:26.591Z,14.70
2023-02-22T04:45:27.901Z,12.53
2023-02-22T04:46:29.637Z,16.13
2023-02-22T04:47:31.011Z,14.50
2023-02-22T04:48:33.311Z,14.23
2023-02-22T04:49:34.682Z,14.00
2023-02-22T04:50:36.551Z,16.20
2023-02-22T04:51:37.887Z,12.67
2023-02-22T04:52:41.883Z,15.00
2023-02-22T04:53:43.194Z,15.63
2023-02-22T04:54:45.536Z,13.63
2023-02-22T04:55:47.141Z,16.20
2023-02-22T04:56:48.590Z,14.97
2023-02-22T04:57:52.911Z,13.43
2023-02-22T04:58:54.459Z,14.07
2023-02-22T04:59:55.801Z,13.13
2023-02-22T05:01:03.055Z,14.73
2023-02-22T05:02:04.423Z,13.43
2023-02-22T05:03:05.756Z,15.73
2023-02-22T05:04:10.006Z,14.67
2023-02-22T05:05:13.088Z,13.80
2023-02-22T05:06:14.365Z,14.37
2023-02-22T05:07:15.797Z,14.77
2023-02-22T05:08:17.087Z,19.23
2023-02-22T05:09:18.992Z,15.93
2023-02-22T05:10:20.595Z,15.77
2023-02-22T05:11:22.396Z,15.90
2023-02-22T05:12:23.751Z,14.37
2023-02-22T05:13:25.119Z,14.23
2023-02-22T05:14:29.440Z,16.37
2023-02-22T05:15:30.856Z,16.27
2023-02-22T05:16:32.328Z,15.23
2023-02-22T05:17:33.977Z,14.60
2023-02-22T05:18:35.288Z,15.33
2023-02-22T05:19:37.293Z,18.23
2023-02-22T05:20:38.629Z,17.37
2023-02-22T05:21:40.355Z,16.37
2023-02-22T05:22:41.744Z,17.67
2023-02-22T05:23:43.073Z,16.47
2023-02-22T05:24:44.398Z,16.23
2023-02-22T05:25:45.952Z,15.73
2023-02-22T05:26:47.443Z,15.50
2023-02-22T05:27:50.100Z,17.27
2023-02-22T05:28:51.450Z,17.83
2023-02-22T05:29:52.773Z,14.93
2023-02-22T05:30:54.077Z,16.80
2023-02-22T05:31:55.579Z,17.43
2023-02-22T05:32:57.257Z,16.50
2023-02-22T05:33:58.548Z,14.83
2023-02-22T05:35:00.007Z,15.80
2023-02-22T05:36:01.382Z,15.50
2023-02-22T05:37:03.438Z,15.23
2023-02-22T05:38:05.136Z,16.50
2023-02-22T05:39:06.491Z,15.10
2023-02-22T05:40:07.960Z,13.63
2023-02-22T05:41:10.752Z,16.03
2023-02-22T05:42:12.139Z,14.13
2023-02-22T05:43:13.438Z,13.40
2023-02-22T05:44:14.773Z,15.50
2023-02-22T05:45:17.507Z,17.13
2023-02-22T05:46:18.942Z,17.77
2023-02-22T05:47:20.245Z,17.90
2023-02-22T05:48:22.709Z,14.63
2023-02-22T05:49:24.125Z,14.57
2023-02-22T05:50:26.170Z,15.03
2023-02-22T05:51:27.462Z,16.47
2023-02-22T05:52:28.807Z,13.93
2023-02-22T05:53:30.102Z,15.67
2023-02-22T05:54:31.460Z,14.50
2023-02-22T05:55:32.983Z,16.53
2023-02-22T05:56:34.327Z,16.43
2023-02-22T05:57:35.626Z,16.10
2023-02-22T05:58:36.910Z,12.27
2023-02-22T05:59:38.217Z,16.37
2023-02-22T06:00:39.501Z,15.77
2023-02-22T06:01:40.831Z,16.33
2023-02-22T06:02:42.138Z,16.20
2023-02-22T06:04:01.883Z,16.07
2023-02-22T06:05:03.484Z,14.80
2023-02-22T06:06:06.583Z,13.90
2023-02-22T06:07:11.114Z,14.03
2023-02-22T06:08:12.505Z,13.47
2023-02-22T06:09:13.859Z,16.03
2023-02-22T06:10:15.227Z,13.37
2023-02-22T06:11:16.920Z,15.37
2023-02-22T06:12:21.948Z,16.77
2023-02-22T06:13:23.233Z,16.03
2023-02-22T06:14:24.538Z,13.63
2023-02-22T06:15:26.596Z,16.40
2023-02-22T06:16:38.897Z,14.90
2023-02-22T06:17:42.804Z,16.07
2023-02-22T06:18:44.095Z,14.20
2023-02-22T06:19:45.456Z,17.23
2023-02-22T06:20:46.880Z,15.00
2023-02-22T06:21:54.153Z,15.60
2023-02-22T06:22:56.055Z,17.07
2023-02-22T06:23:57.345Z,15.00
2023-02-22T06:24:58.889Z,16.93
2023-02-22T06:26:08.621Z,17.47
2023-02-22T06:27:39.293Z,17.40
2023-02-22T06:28:46.925Z,17.63
2023-02-22T06:29:48.251Z,15.03
2023-02-22T06:30:49.851Z,16.43
2023-02-22T06:31:55.299Z,18.53
2023-02-22T06:33:03.709Z,14.80
2023-02-22T06:34:07.532Z,17.73
2023-02-22T06:35:14.922Z,15.40
2023-02-22T06:36:16.268Z,15.60
2023-02-22T06:37:17.565Z,17.23
2023-02-22T06:38:25.610Z,16.10
2023-02-22T06:39:27.011Z,15.03
2023-02-22T06:40:31.565Z,14.87
2023-02-22T06:41:36.638Z,16.70
2023-02-22T06:42:38.810Z,15.63
2023-02-22T06:43:40.119Z,15.73
2023-02-22T06:44:41.521Z,18.97
2023-02-22T06:45:53.455Z,15.47
2023-02-22T06:46:54.781Z,16.87
2023-02-22T06:47:57.903Z,17.47
2023-02-22T06:49:04.476Z,17.33
2023-02-22T06:50:05.926Z,14.57
2023-02-22T06:51:13.524Z,15.83
2023-02-22T06:52:20.987Z,14.97
2023-02-22T06:53:22.336Z,14.97
2023-02-22T06:54:34.842Z,16.00
2023-02-22T06:55:39.043Z,18.70
2023-02-22T06:56:40.478Z,14.67
2023-02-22T06:57:46.205Z,15.40
2023-02-22T06:58:49.317Z,14.97
2023-02-22T06:59:55.299Z,15.20
2023-02-22T07:00:57.930Z,14.53
2023-02-22T07:01:59.342Z,14.43
2023-02-22T07:03:00.811Z,14.63
2023-02-22T07:04:02.313Z,14.90
2023-02-22T07:05:05.308Z,15.27
2023-02-22T07:06:11.465Z,14.60
2023-02-22T07:07:14.501Z,15.23
2023-02-22T07:08:19.623Z,17.17
2023-02-22T07:09:25.742Z,12.93
2023-02-22T07:10:28.909Z,14.23
2023-02-22T07:11:30.306Z,14.77
2023-02-22T07:12:34.445Z,14.23
2023-02-22T07:13:35.882Z,15.10
2023-02-22T07:14:42.259Z,14.37
2023-02-22T07:15:47.758Z,15.00
2023-02-22T07:16:51.307Z,17.07
2023-02-22T07:17:52.747Z,16.63
2023-02-22T07:18:54.089Z,18.17
2023-02-22T07:19:55.510Z,14.50
2023-02-22T07:21:02.400Z,18.00
2023-02-22T07:22:03.794Z,14.83
2023-02-22T07:23:05.582Z,17.17
2023-02-22T07:24:12.435Z,12.53
2023-02-22T07:25:13.836Z,14.80
2023-02-22T07:26:15.316Z,14.70
2023-02-22T07:27:17.681Z,19.57
2023-02-22T07:28:20.829Z,16.33
2023-02-22T07:29:25.048Z,13.20
2023-02-22T07:30:30.659Z,14.53
2023-02-22T07:31:39.233Z,14.63
2023-02-22T07:32:42.088Z,16.40
2023-02-22T07:33:43.521Z,16.37
2023-02-22T07:34:44.831Z,15.33
2023-02-22T07:35:49.908Z,16.33
2023-02-22T07:36:53.616Z,16.93
2023-02-22T07:37:56.062Z,16.47
2023-02-22T07:39:00.117Z,15.23
2023-02-22T07:40:04.004Z,18.97
2023-02-22T07:41:05.342Z,15.57
2023-02-22T07:42:06.676Z,15.90
2023-02-22T07:43:22.100Z,18.00
2023-02-22T07:44:23.483Z,18.10
2023-02-22T07:45:27.662Z,16.67
2023-02-22T07:46:29.847Z,19.37
2023-02-22T07:47:31.332Z,18.63
2023-02-22T07:48:32.897Z,14.90
2023-02-22T07:49:34.206Z,16.40
2023-02-22T07:50:35.760Z,16.30
2023-02-22T07:51:37.084Z,16.47
2023-02-22T07:52:38.380Z,15.90
2023-02-22T07:53:39.735Z,16.93
2023-02-22T07:54:41.174Z,18.93
2023-02-22T07:55:43.511Z,14.93
2023-02-22T07:56:45.800Z,13.60
2023-02-22T07:57:52.630Z,17.87
2023-02-22T07:58:53.946Z,12.33
2023-02-22T07:59:55.268Z,13.77
2023-02-22T08:00:57.074Z,13.80
2023-02-22T08:02:00.203Z,15.80
2023-02-22T08:03:02.836Z,12.07
2023-02-22T08:04:04.230Z,14.63
2023-02-22T08:05:06.005Z,14.70
2023-02-22T08:06:08.034Z,13.50
2023-02-22T08:07:09.372Z,14.47
2023-02-22T08:08:10.908Z,13.57
2023-02-22T08:09:12.313Z,14.53
2023-02-22T08:10:14.292Z,16.20
2023-02-22T08:11:15.790Z,12.13
2023-02-22T08:12:17.279Z,14.80
2023-02-22T08:13:18.955Z,15.17
2023-02-22T08:14:20.258Z,15.10
2023-02-22T08:15:24.292Z,14.67
2023-02-22T08:16:25.611Z,14.83
2023-02-22T08:17:27.007Z,11.93
2023-02-22T08:18:28.333Z,13.77
2023-02-22T08:19:29.636Z,13.23
2023-02-22T08:20:31.568Z,15.20
2023-02-22T08:21:32.978Z,14.47
2023-02-22T08:22:34.342Z,14.80
2023-02-22T08:23:35.614Z,15.70
2023-02-22T08:24:36.990Z,14.43
2023-02-22T08:25:38.415Z,15.47
2023-02-22T08:26:44.490Z,12.63
2023-02-22T08:27:46.411Z,12.97
2023-02-22T08:28:50.945Z,13.90
2023-02-22T08:29:52.850Z,13.80
2023-02-22T08:30:54.219Z,14.37
2023-02-22T08:31:55.670Z,11.47
2023-02-22T08:32:58.268Z,13.27
2023-02-22T08:34:00.987Z,14.00
2023-02-22T08:35:02.685Z,12.40
2023-02-22T08:36:04.376Z,14.03
2023-02-22T08:37:05.831Z,13.27
2023-02-22T08:38:07.865Z,12.37
2023-02-22T08:39:09.161Z,14.10
2023-02-22T08:40:11.499Z,13.40
2023-02-22T08:41:14.141Z,13.27
2023-02-22T08:42:15.552Z,12.47
2023-02-22T08:43:17.616Z,12.80
2023-02-22T08:44:18.930Z,12.57
2023-02-22T08:45:20.243Z,14.27
2023-02-22T08:46:21.571Z,13.23
2023-02-22T08:47:22.902Z,15.77
2023-02-22T08:48:27.071Z,12.73
2023-02-22T08:49:28.390Z,14.13
2023-02-22T08:50:31.010Z,14.87
2023-02-22T08:51:34.809Z,14.37
2023-02-22T08:52:36.202Z,15.77
2023-02-22T08:53:37.899Z,14.37
2023-02-22T08:54:39.548Z,14.47
2023-02-22T08:55:41.845Z,16.23
2023-02-22T08:56:43.165Z,12.33
2023-02-22T08:57:44.490Z,14.13
2023-02-22T08:58:46.115Z,14.93
2023-02-22T08:59:47.450Z,14.47
2023-02-22T09:00:49.149Z,15.07
2023-02-22T09:01:50.561Z,14.60
2023-02-22T09:02:52.350Z,16.00
2023-02-22T09:03:53.713Z,14.00
2023-02-22T09:04:55.072Z,14.40
2023-02-22T09:05:56.454Z,24.70
2023-02-22T09:06:58.051Z,19.80
2023-02-22T09:08:00.072Z,19.67
2023-02-22T09:09:01.577Z,16.53
2023-02-22T09:10:02.910Z,15.87
2023-02-22T09:11:04.332Z,15.57
2023-02-22T09:12:05.750Z,14.43
2023-02-22T09:13:07.151Z,14.30
2023-02-22T09:14:08.487Z,18.17
2023-02-22T09:15:10.710Z,19.03
2023-02-22T09:16:12.100Z,18.43
2023-02-22T09:17:13.476Z,16.80
2023-02-22T09:18:14.909Z,15.73
2023-02-22T09:19:16.230Z,18.77
2023-02-22T09:20:18.741Z,17.00
2023-02-22T09:21:20.055Z,17.70
2023-02-22T09:22:21.341Z,14.33
2023-02-22T09:23:22.686Z,15.00
2023-02-22T09:24:24.080Z,15.33
2023-02-22T09:25:25.385Z,13.50
2023-02-22T09:26:27.665Z,13.43
2023-02-22T09:27:29.004Z,13.90
2023-02-22T09:28:30.347Z,13.30
2023-02-22T09:29:31.716Z,16.63
2023-02-22T09:30:34.459Z,15.23
2023-02-22T09:31:36.632Z,16.03
2023-02-22T09:32:38.302Z,15.43
2023-02-22T09:33:40.867Z,15.67
2023-02-22T09:34:45.728Z,15.33
2023-02-22T09:35:49.663Z,13.27
2023-02-22T09:36:51.110Z,13.23
2023-02-22T09:38:00.089Z,13.03
2023-02-22T09:39:02.004Z,12.67
2023-02-22T09:40:03.417Z,12.90
2023-02-22T09:41:16.453Z,14.03
2023-02-22T09:42:20.552Z,14.67
2023-02-22T09:43:41.668Z,13.73
2023-02-22T09:44:54.545Z,15.50
2023-02-22T09:46:02.733Z,15.70
2023-02-22T09:47:04.549Z,12.57
2023-02-22T09:48:20.913Z,13.97
2023-02-22T09:49:27.272Z,14.03
2023-02-22T09:50:30.742Z,13.53
2023-02-22T09:51:35.732Z,14.10
2023-02-22T09:52:41.370Z,11.93
2023-02-22T09:53:45.595Z,13.83
2023-02-22T09:54:51.802Z,14.90
2023-02-22T09:55:53.305Z,14.47
2023-02-22T09:56:57.340Z,14.17
2023-02-22T09:58:01.476Z,14.63
2023-02-22T09:59:05.388Z,13.43
2023-02-22T10:00:20.780Z,13.70
2023-02-22T10:01:32.656Z,13.63
2023-02-22T10:02:36.605Z,13.90
2023-02-22T10:03:45.063Z,12.27
2023-02-22T10:05:13.418Z,15.07
2023-02-22T10:06:16.856Z,14.60
2023-02-22T10:07:25.871Z,13.60
2023-02-22T10:08:31.178Z,13.67
2023-02-22T10:09:37.540Z,13.80
2023-02-22T10:10:39.949Z,14.27
2023-02-22T10:11:41.232Z,13.57
2023-02-22T10:12:48.412Z,16.30
2023-02-22T10:14:01.966Z,14.47
2023-02-22T10:15:28.087Z,13.77
2023-02-22T10:16:29.527Z,15.10
2023-02-22T10:17:35.760Z,15.63
2023-02-22T10:18:56.649Z,12.77
2023-02-22T10:20:28.536Z,14.63
2023-02-22T10:21:48.508Z,13.30
2023-02-22T10:23:08.610Z,13.50
2023-02-22T10:24:28.754Z,11.57
2023-02-22T10:25:34.879Z,12.57
2023-02-22T10:26:37.818Z,13.30
2023-02-22T10:27:44.691Z,16.87
2023-02-22T10:28:52.029Z,14.90
2023-02-22T10:29:56.985Z,13.07
2023-02-22T10:31:02.186Z,14.97
2023-02-22T10:32:04.863Z,14.00
2023-02-22T10:33:06.170Z,12.83
2023-02-22T10:34:12.488Z,13.97
2023-02-22T10:35:20.719Z,13.53
2023-02-22T10:36:23.645Z,14.20
2023-02-22T10:37:29.399Z,13.70
2023-02-22T10:38:33.055Z,12.90
2023-02-22T10:39:36.402Z,13.10
2023-02-22T10:40:39.258Z,14.37
2023-02-22T10:41:44.582Z,11.47
2023-02-22T10:42:47.252Z,17.73
2023-02-22T10:43:48.647Z,14.23
2023-02-22T10:44:50.056Z,15.50
2023-02-22T10:45:55.876Z,15.53
2023-02-22T10:46:58.566Z,13.87
2023-02-22T10:48:01.724Z,13.10
2023-02-22T10:49:07.298Z,14.47
2023-02-22T10:50:12.949Z,13.87
2023-02-22T10:51:14.239Z,13.13
2023-02-22T10:52:18.375Z,12.67
2023-02-22T10:53:19.733Z,13.67
2023-02-22T10:54:41.107Z,13.17
2023-02-22T10:56:01.489Z,14.63
2023-02-22T10:57:03.966Z,12.07
2023-02-22T10:58:06.921Z,12.70
2023-02-22T10:59:08.639Z,13.30
2023-02-22T11:00:20.808Z,14.90
2023-02-22T11:01:26.042Z,11.63
2023-02-22T11:02:31.759Z,12.03
2023-02-22T11:03:33.383Z,14.80
2023-02-22T11:04:45.472Z,14.17
2023-02-22T11:05:46.912Z,14.03
2023-02-22T11:06:49.972Z,11.17
2023-02-22T11:07:51.664Z,12.20
2023-02-22T11:09:03.676Z,12.17
2023-02-22T11:10:07.976Z,15.00
2023-02-22T11:11:24.673Z,12.70
2023-02-22T11:12:28.761Z,11.50
2023-02-22T11:13:33.331Z,11.93
2023-02-22T11:14:34.641Z,12.90
2023-02-22T11:15:36.000Z,12.30
2023-02-22T11:16:41.985Z,13.23
2023-02-22T11:17:43.999Z,13.50
2023-02-22T11:18:45.885Z,12.83
2023-02-22T11:19:48.444Z,13.40
2023-02-22T11:20:58.676Z,12.43
2023-02-22T11:22:11.422Z,13.27
2023-02-22T11:23:13.579Z,13.97
2023-02-22T11:25:19.841Z,13.77
2023-02-22T11:26:21.160Z,13.17
2023-02-22T11:27:38.574Z,13.50
2023-02-22T11:28:49.195Z,12.13
2023-02-22T11:29:51.112Z,12.07
2023-02-22T11:30:52.606Z,15.90
2023-02-22T11:31:55.036Z,12.73
2023-02-22T11:32:58.841Z,14.53
2023-02-22T11:34:01.196Z,12.10
2023-02-22T11:35:21.304Z,13.60
2023-02-22T11:36:31.736Z,14.47
2023-02-22T11:37:34.540Z,15.10
2023-02-22T11:38:37.346Z,13.10
2023-02-22T11:39:38.741Z,14.43
2023-02-22T11:40:40.123Z,13.40
2023-02-22T11:41:42.203Z,13.77
2023-02-22T11:42:45.815Z,14.37
2023-02-22T11:43:48.465Z,12.60
2023-02-22T11:45:07.401Z,13.23
2023-02-22T11:46:27.896Z,15.17
2023-02-22T11:47:29.258Z,14.43
2023-02-22T11:48:42.079Z,16.33
2023-02-22T11:49:44.300Z,14.97
2023-02-22T11:50:51.676Z,16.90
2023-02-22T11:52:08.593Z,15.43
2023-02-22T11:53:21.956Z,15.83
2023-02-22T11:54:34.031Z,16.53
2023-02-22T11:55:43.127Z,17.03
2023-02-22T11:56:46.970Z,14.03
2023-02-22T11:57:57.897Z,18.17
2023-02-22T11:59:19.433Z,16.40
2023-02-22T12:00:33.428Z,15.90
2023-02-22T12:01:51.471Z,17.53
2023-02-22T12:03:01.443Z,17.53
2023-02-22T12:04:02.872Z,18.60
2023-02-22T12:05:04.264Z,16.57
2023-02-22T12:06:20.037Z,15.03
2023-02-22T12:07:48.564Z,16.33
2023-02-22T12:09:00.080Z,13.53
2023-02-22T12:10:30.677Z,16.87
2023-02-22T12:11:39.684Z,18.13
2023-02-22T12:12:47.250Z,17.10
2023-02-22T12:14:01.630Z,19.00
2023-02-22T12:15:07.946Z,13.70
2023-02-22T12:16:09.311Z,15.83
2023-02-22T12:17:16.134Z,16.87
2023-02-22T12:18:22.204Z,16.93
2023-02-22T12:19:26.355Z,16.17
2023-02-22T12:20:31.887Z,17.40
2023-02-22T12:21:34.275Z,18.90
2023-02-22T12:22:37.872Z,17.77
2023-02-22T12:23:57.850Z,18.27
2023-02-22T12:25:09.912Z,17.20
2023-02-22T12:26:16.959Z,15.80
2023-02-22T12:27:22.242Z,17.27
2023-02-22T12:28:27.799Z,15.37
2023-02-22T12:29:41.479Z,15.97
2023-02-22T12:30:45.309Z,16.17
2023-02-22T12:31:53.207Z,16.87
2023-02-22T12:32:58.913Z,16.70
2023-02-22T12:34:15.691Z,15.23
2023-02-22T12:35:17.081Z,15.83
2023-02-22T12:36:20.795Z,14.10
2023-02-22T12:37:25.078Z,19.43
2023-02-22T12:38:37.192Z,16.37
2023-02-22T12:39:56.659Z,16.37
2023-02-22T12:41:27.378Z,16.93
2023-02-22T12:42:33.768Z,14.10
2023-02-22T12:43:39.283Z,16.40
2023-02-22T12:44:42.698Z,15.87
2023-02-22T12:46:00.263Z,17.43
2023-02-22T12:47:05.386Z,15.90
2023-02-22T12:48:18.179Z,17.53
2023-02-22T12:49:31.771Z,14.00
2023-02-22T12:50:34.484Z,16.40
2023-02-22T12:51:41.883Z,21.17
2023-02-22T12:52:43.225Z,17.00
2023-02-22T12:53:49.452Z,16.10
2023-02-22T12:55:11.087Z,19.30
2023-02-22T12:56:35.552Z,18.13
2023-02-22T12:57:42.618Z,16.63
2023-02-22T12:58:53.074Z,16.27
2023-02-22T12:59:59.876Z,17.33
2023-02-22T13:01:05.872Z,17.60
2023-02-22T13:02:15.522Z,18.17
2023-02-22T13:03:37.221Z,18.23
2023-02-22T13:04:38.622Z,17.77
2023-02-22T13:05:40.649Z,14.70
2023-02-22T13:06:48.508Z,15.80
2023-02-22T13:08:02.606Z,19.00
2023-02-22T13:09:11.147Z,18.37
2023-02-22T13:10:32.263Z,18.37
2023-02-22T13:11:52.007Z,15.13
2023-02-22T13:12:53.366Z,17.17
2023-02-22T13:14:13.450Z,14.77
2023-02-22T13:15:20.109Z,20.47
2023-02-22T13:16:25.552Z,16.20
2023-02-22T13:17:38.764Z,18.43
2023-02-22T13:19:03.728Z,18.00
2023-02-22T13:20:06.140Z,17.23
2023-02-22T13:21:26.276Z,18.33
2023-02-22T13:22:46.538Z,14.57
2023-02-22T13:24:03.503Z,14.07
2023-02-22T13:25:27.600Z,15.10
2023-02-22T13:26:34.799Z,15.57
2023-02-22T13:27:59.207Z,12.90
2023-02-22T13:29:32.880Z,15.30
2023-02-22T13:30:45.799Z,14.03
2023-02-22T13:32:07.533Z,15.07
2023-02-22T13:33:17.713Z,15.07
2023-02-22T13:34:24.793Z,13.57
2023-02-22T13:35:35.074Z,16.00
2023-02-22T13:36:38.597Z,13.50
2023-02-22T13:37:58.707Z,13.77
2023-02-22T13:39:06.114Z,13.03
2023-02-22T13:40:16.799Z,13.20
2023-02-22T13:41:36.823Z,13.67
2023-02-22T13:42:38.089Z,14.60
2023-02-22T13:44:02.170Z,14.10
2023-02-22T13:45:22.298Z,15.83
2023-02-22T13:46:29.014Z,16.77
2023-02-22T13:47:36.299Z,15.07
2023-02-22T13:48:52.802Z,14.67
2023-02-22T13:49:57.365Z,15.57
2023-02-22T13:51:21.987Z,14.57
2023-02-22T13:52:24.807Z,16.17
2023-02-22T13:53:28.667Z,16.53
2023-02-22T13:54:50.566Z,12.43
2023-02-22T13:55:54.064Z,15.53
2023-02-22T13:56:56.114Z,13.70
2023-02-22T13:58:02.835Z,14.27
2023-02-22T13:59:04.516Z,14.27
2023-02-22T14:00:20.639Z,15.27
2023-02-22T14:01:44.910Z,14.87
2023-02-22T14:02:58.600Z,16.40
2023-02-22T14:04:18.841Z,14.63